Time;durP1;ratioP1;P1;durP2;ratioP2;P2;SDS_P1;SDS_P2;PMS_P1;PMS_P2;Temp;Humidity;BMP_temperature;BMP_pressure;BME280_temperature;BME280_humidity;BME280_pressure;Samples;Min_cycle;Max_cycle;Signal;HPM_P1;HPM_P2
2021/09/22 00:02:08;;;;;;;8.23;6.72;;;;;;;10.66;84.71;101744.59;5053756;28;20493;-51
2021/09/22 00:04:35;;;;;;;9.25;6.20;;;;;;;10.63;84.81;101747.34;5045743;28;20052;-52
2021/09/22 00:07:02;;;;;;;8.90;6.60;;;;;;;10.62;84.83;101748.25;5054771;28;20048;-52
2021/09/22 00:09:29;;;;;;;8.40;6.75;;;;;;;10.55;85.47;101743.09;5058427;28;20047;-52
2021/09/22 00:11:55;;;;;;;9.35;7.15;;;;;;;10.57;85.39;101742.19;5052421;28;20051;-52
2021/09/22 00:14:22;;;;;;;11.43;7.00;;;;;;;10.55;85.54;101739.56;5059420;28;20045;-53
2021/09/22 00:16:49;;;;;;;9.63;6.35;;;;;;;10.43;85.42;101729.28;5058269;28;20067;-52
2021/09/22 00:19:15;;;;;;;10.13;6.45;;;;;;;10.55;85.94;101747.50;5061053;28;20138;-52
2021/09/22 00:21:42;;;;;;;9.63;6.47;;;;;;;10.51;86.09;101741.44;5055949;28;20033;-51
2021/09/22 00:24:08;;;;;;;9.63;6.65;;;;;;;10.52;85.88;101745.84;5053470;28;20071;-51
2021/09/22 00:26:35;;;;;;;13.20;6.70;;;;;;;10.50;86.28;101742.34;5061651;28;20807;-52
2021/09/22 00:29:01;;;;;;;11.38;6.63;;;;;;;10.49;86.49;101737.09;5055642;28;20071;-53
2021/09/22 00:31:28;;;;;;;9.20;6.47;;;;;;;10.47;86.58;101746.84;5056388;28;20067;-53
2021/09/22 00:33:55;;;;;;;8.63;6.45;;;;;;;10.46;86.91;101742.47;5051476;28;20391;-52
2021/09/22 00:36:21;;;;;;;8.43;6.72;;;;;;;10.42;86.99;101744.31;5055082;28;20071;-53
2021/09/22 00:38:48;;;;;;;9.57;6.82;;;;;;;10.40;87.03;101742.59;5059500;28;20051;-52
2021/09/22 00:41:14;;;;;;;12.57;7.40;;;;;;;10.41;87.34;101744.34;5057560;28;20048;-52
2021/09/22 00:43:41;;;;;;;9.57;6.47;;;;;;;10.42;87.32;101746.09;5052375;28;20048;-52
2021/09/22 00:46:07;;;;;;;8.55;6.60;;;;;;;10.39;87.16;101735.59;5054509;28;20040;-53
2021/09/22 00:48:35;;;;;;;8.77;6.63;;;;;;;10.36;87.73;101754.19;5055683;28;20133;-53
2021/09/22 00:51:04;;;;;;;9.25;6.65;;;;;;;10.34;87.69;101750.72;5053553;28;20048;-53
2021/09/22 00:53:33;;;;;;;9.70;6.75;;;;;;;10.32;87.54;101752.53;5053414;28;20048;-53
2021/09/22 00:56:03;;;;;;;11.35;6.68;;;;;;;10.35;87.59;101757.75;5051727;28;20048;-52
2021/09/22 00:58:31;;;;;;;8.45;7.00;;;;;;;10.31;87.39;101751.66;5053162;28;20052;-52
2021/09/22 01:00:58;;;;;;;8.40;6.57;;;;;;;10.27;87.59;101744.69;5050409;28;20053;-53
2021/09/22 01:03:26;;;;;;;9.32;6.97;;;;;;;10.23;88.38;101742.16;5058323;28;20678;-52
2021/09/22 01:05:54;;;;;;;10.43;6.85;;;;;;;10.22;88.71;101741.31;5051301;28;20052;-52
2021/09/22 01:08:20;;;;;;;10.80;7.43;;;;;;;10.21;88.60;101739.56;5052761;28;20081;-52
2021/09/22 01:10:49;;;;;;;11.32;6.70;;;;;;;10.19;88.43;101734.28;5053564;28;20498;-52
2021/09/22 01:13:17;;;;;;;9.68;6.82;;;;;;;10.17;87.86;101743.13;5054869;28;20387;-52
2021/09/22 01:15:43;;;;;;;8.02;6.38;;;;;;;10.01;88.08;101725.88;5050991;28;20059;-52
2021/09/22 01:18:17;;;;;;;13.63;7.25;;;;;;;10.11;87.84;101752.09;5049122;28;20342;-52
2021/09/22 01:20:53;;;;;;;9.55;6.45;;;;;;;10.08;87.98;101762.75;5052375;28;20783;-51
2021/09/22 01:23:21;;;;;;;10.48;6.90;;;;;;;9.97;87.89;101754.19;5053652;28;20045;-51
2021/09/22 01:25:49;;;;;;;10.90;7.25;;;;;;;9.99;88.66;101757.66;5050713;28;20044;-51
2021/09/22 01:28:20;;;;;;;10.05;7.03;;;;;;;9.99;88.40;101754.16;5056852;28;20045;-51
2021/09/22 01:30:47;;;;;;;11.15;6.65;;;;;;;9.96;88.93;101755.09;5053263;28;20036;-52
2021/09/22 01:33:15;;;;;;;10.80;7.22;;;;;;;9.96;88.82;101756.88;5054959;28;20040;-51
2021/09/22 01:35:45;;;;;;;12.48;6.88;;;;;;;9.96;88.96;101760.38;5051284;28;20509;-51
2021/09/22 01:38:15;;;;;;;10.90;7.43;;;;;;;9.94;89.23;101751.59;5048621;28;20052;-52
2021/09/22 01:40:55;;;;;;;11.30;7.18;;;;;;;9.90;89.18;101749.97;5054291;28;20048;-51
2021/09/22 01:43:23;;;;;;;10.90;7.18;;;;;;;9.85;89.54;101747.41;5050827;28;20891;-51
2021/09/22 01:45:50;;;;;;;10.55;7.10;;;;;;;9.83;89.72;101740.41;5053733;28;20055;-51
2021/09/22 01:48:16;;;;;;;11.45;7.15;;;;;;;9.85;89.76;101746.53;5051291;28;20798;-52
2021/09/22 01:50:43;;;;;;;10.98;7.68;;;;;;;9.80;89.79;101743.97;5054695;28;20426;-52
2021/09/22 01:53:09;;;;;;;11.38;7.13;;;;;;;9.76;90.37;101746.72;5052488;28;20039;-51
2021/09/22 01:55:36;;;;;;;13.07;7.50;;;;;;;9.70;90.86;101742.44;5054930;28;20044;-52
2021/09/22 01:58:02;;;;;;;9.55;6.72;;;;;;;9.67;91.10;101742.50;5052950;28;20049;-52
2021/09/22 02:00:29;;;;;;;11.43;7.55;;;;;;;9.68;91.16;101738.09;5053545;28;20048;-52
2021/09/22 02:02:55;;;;;;;12.23;8.10;;;;;;;9.67;91.34;101728.41;5056287;28;20417;-52
2021/09/22 02:05:23;;;;;;;11.82;7.18;;;;;;;9.66;91.28;101724.03;5057573;28;20044;-52
2021/09/22 02:07:49;;;;;;;10.32;7.13;;;;;;;9.62;91.37;101728.50;5048007;28;20055;-52
2021/09/22 02:10:16;;;;;;;10.73;7.75;;;;;;;9.60;92.01;101722.38;5060300;28;20505;-52
2021/09/22 02:12:42;;;;;;;11.95;7.60;;;;;;;9.59;92.15;101725.97;5057605;28;20044;-50
2021/09/22 02:15:09;;;;;;;9.75;6.85;;;;;;;9.60;91.93;101717.09;5057153;28;20056;-52
2021/09/22 02:17:36;;;;;;;9.82;6.95;;;;;;;9.57;92.20;101719.81;5057837;28;20040;-52
2021/09/22 02:20:04;;;;;;;10.05;7.43;;;;;;;9.56;92.31;101722.50;5051521;28;20044;-52
2021/09/22 02:22:30;;;;;;;11.30;7.32;;;;;;;9.69;96.31;101713.38;5057843;28;20037;-52
2021/09/22 02:24:57;;;;;;;13.77;7.35;;;;;;;9.70;95.64;101717.78;5060499;28;20401;-52
2021/09/22 02:27:24;;;;;;;11.57;7.45;;;;;;;9.64;94.45;101717.91;5058017;28;20363;-53
2021/09/22 02:29:50;;;;;;;10.57;6.88;;;;;;;9.59;93.29;101714.50;5057040;28;20053;-51
2021/09/22 02:32:17;;;;;;;10.45;7.40;;;;;;;9.52;92.66;101720.81;5055793;28;20041;-52
2021/09/22 02:34:44;;;;;;;12.73;7.15;;;;;;;9.52;92.25;101718.19;5057922;28;20044;-51
2021/09/22 02:37:11;;;;;;;9.77;6.85;;;;;;;9.49;92.09;101721.75;5037805;28;20045;-53
2021/09/22 02:39:37;;;;;;;10.95;6.90;;;;;;;9.43;92.03;101722.78;5055508;28;20044;-54
2021/09/22 02:42:04;;;;;;;12.65;7.07;;;;;;;9.27;92.06;101708.13;5055544;28;20053;-53
2021/09/22 02:44:31;;;;;;;10.13;7.30;;;;;;;9.31;92.36;101725.66;5061412;28;20041;-51
2021/09/22 02:46:57;;;;;;;10.70;6.97;;;;;;;9.28;92.78;101723.09;5057354;28;20040;-51
2021/09/22 02:49:24;;;;;;;11.05;7.22;;;;;;;9.25;92.96;101711.69;5061975;28;20048;-51
2021/09/22 02:51:51;;;;;;;11.38;7.30;;;;;;;9.27;94.28;101716.06;5054590;28;20052;-52
2021/09/22 02:54:18;;;;;;;12.05;7.07;;;;;;;9.30;95.21;101710.69;5058665;28;20095;-53
2021/09/22 02:56:45;;;;;;;10.35;7.00;;;;;;;9.30;95.04;101710.69;5054272;28;20067;-50
2021/09/22 02:59:12;;;;;;;11.25;7.97;;;;;;;9.39;96.87;101714.94;5058127;28;20685;-51
2021/09/22 03:01:39;;;;;;;13.27;7.93;;;;;;;9.37;95.09;101716.72;5057678;28;20053;-53
2021/09/22 03:04:05;;;;;;;12.75;7.40;;;;;;;9.33;93.92;101712.41;5061685;28;20059;-50
2021/09/22 03:06:33;;;;;;;10.43;6.63;;;;;;;9.28;93.75;101712.53;5056624;28;20056;-52
2021/09/22 03:08:59;;;;;;;10.10;7.10;;;;;;;9.27;93.54;101708.13;5057443;28;20059;-52
2021/09/22 03:11:26;;;;;;;10.65;7.72;;;;;;;9.22;93.67;101710.00;5054247;28;20048;-51
2021/09/22 03:13:52;;;;;;;11.38;7.45;;;;;;;9.26;94.04;101721.38;5046593;28;20048;-52
2021/09/22 03:16:19;;;;;;;12.57;7.57;;;;;;;9.13;93.11;101702.22;5060235;28;20681;-52
2021/09/22 03:18:45;;;;;;;10.63;7.55;;;;;;;9.14;93.00;101699.56;5056632;28;20044;-54
2021/09/22 03:21:12;;;;;;;10.23;7.05;;;;;;;9.21;92.91;101726.75;5054816;28;20552;-51
2021/09/22 03:23:39;;;;;;;10.65;7.60;;;;;;;9.13;93.19;101712.78;5054863;28;20052;-52
2021/09/22 03:26:06;;;;;;;10.68;7.72;;;;;;;9.16;93.95;101723.31;5061373;28;20045;-51
2021/09/22 03:28:32;;;;;;;11.35;7.10;;;;;;;9.16;93.76;101718.03;5055704;28;20521;-51
2021/09/22 03:30:59;;;;;;;9.85;6.95;;;;;;;9.13;93.69;101723.38;5050015;28;20041;-55
2021/09/22 03:33:26;;;;;;;13.63;7.43;;;;;;;9.11;93.59;101720.78;5055651;28;20163;-51
2021/09/22 03:35:52;;;;;;;10.38;7.38;;;;;;;9.08;93.95;101722.59;5055061;28;20073;-51
2021/09/22 03:38:19;;;;;;;10.50;7.22;;;;;;;9.07;94.17;101726.16;5051875;28;20056;-52
2021/09/22 03:40:45;;;;;;;10.43;7.18;;;;;;;9.07;93.87;101726.16;5054112;28;20052;-51
2021/09/22 03:43:11;;;;;;;12.25;7.03;;;;;;;9.06;93.97;101727.91;5057308;28;20047;-56
2021/09/22 03:45:38;;;;;;;11.00;7.78;;;;;;;9.01;94.03;101726.25;5051679;28;20064;-51
2021/09/22 03:48:05;;;;;;;11.18;7.50;;;;;;;9.05;94.11;101742.03;5054567;28;20053;-51
2021/09/22 03:50:31;;;;;;;9.20;6.93;;;;;;;9.04;94.09;101750.84;5053121;28;20131;-53
2021/09/22 03:52:58;;;;;;;11.15;7.65;;;;;;;9.03;94.31;101745.59;5057502;28;20051;-51
2021/09/22 03:55:24;;;;;;;10.55;7.93;;;;;;;9.02;94.09;101757.06;5058116;28;20052;-52
2021/09/22 03:57:52;;;;;;;9.65;7.30;;;;;;;9.00;94.67;101756.22;5050850;28;20053;-50
2021/09/22 04:00:18;;;;;;;10.18;7.80;;;;;;;8.99;94.70;101762.41;5057102;28;20049;-52
2021/09/22 04:02:45;;;;;;;10.32;6.80;;;;;;;9.00;94.64;101762.38;5057459;28;20839;-53
2021/09/22 04:05:11;;;;;;;9.93;7.47;;;;;;;9.00;94.15;101762.38;5058405;28;20072;-50
2021/09/22 04:07:38;;;;;;;11.52;7.97;;;;;;;8.98;94.80;101760.66;5053101;28;20063;-51
2021/09/22 04:10:05;;;;;;;12.38;7.63;;;;;;;8.98;95.18;101760.66;5053337;28;20041;-52
2021/09/22 04:12:32;;;;;;;11.15;7.82;;;;;;;8.97;95.30;101759.78;5051946;28;20036;-53
2021/09/22 04:14:59;;;;;;;11.52;7.68;;;;;;;8.99;95.38;101752.69;5059728;28;20127;-54
2021/09/22 04:17:25;;;;;;;12.95;7.30;;;;;;;9.02;95.16;101757.06;5057268;28;20041;-52
2021/09/22 04:19:52;;;;;;;10.02;7.57;;;;;;;9.03;94.84;101748.25;5053963;28;20048;-52
2021/09/22 04:22:18;;;;;;;10.05;7.18;;;;;;;8.99;95.06;101747.41;5061563;28;20525;-51
2021/09/22 04:24:45;;;;;;;11.70;7.65;;;;;;;8.98;94.86;101750.09;5055040;28;20048;-52
2021/09/22 04:27:11;;;;;;;13.40;8.13;;;;;;;8.94;94.47;101756.34;5052755;28;20052;-51
2021/09/22 04:29:38;;;;;;;12.30;7.90;;;;;;;8.85;94.93;101754.75;5054647;28;20044;-51
2021/09/22 04:32:05;;;;;;;12.13;7.95;;;;;;;8.79;94.82;101753.09;5050944;28;20048;-52
2021/09/22 04:34:31;;;;;;;13.13;7.30;;;;;;;8.74;95.25;101754.06;5052056;28;20059;-51
2021/09/22 04:36:58;;;;;;;13.07;7.85;;;;;;;8.67;95.47;101739.22;5053561;28;20816;-52
2021/09/22 04:39:25;;;;;;;11.15;7.60;;;;;;;8.57;95.79;101730.59;5053441;28;20048;-53
2021/09/22 04:41:51;;;;;;;12.18;7.80;;;;;;;8.66;96.06;101743.63;5055255;28;20052;-52
2021/09/22 04:44:18;;;;;;;11.18;7.75;;;;;;;8.61;95.97;101737.56;5055519;28;20040;-52
2021/09/22 04:46:45;;;;;;;13.70;7.90;;;;;;;8.57;96.12;101743.81;5055836;28;20071;-55
2021/09/22 04:49:12;;;;;;;14.50;7.93;;;;;;;8.55;96.25;101737.66;5053479;28;20110;-52
2021/09/22 04:51:38;;;;;;;14.18;8.57;;;;;;;8.54;96.82;101735.91;5049959;28;20044;-56
2021/09/22 04:54:05;;;;;;;10.73;7.90;;;;;;;8.49;96.49;101729.88;5054538;28;20061;-55
2021/09/22 04:56:31;;;;;;;12.57;8.38;;;;;;;8.49;96.70;101735.16;5057165;28;20759;-54
2021/09/22 04:58:58;;;;;;;14.02;8.57;;;;;;;8.48;96.97;101746.59;5055659;28;20044;-58
2021/09/22 05:01:24;;;;;;;12.70;8.23;;;;;;;8.47;97.03;101746.63;5057891;28;20130;-52
2021/09/22 05:03:51;;;;;;;10.73;7.82;;;;;;;8.47;96.89;101746.63;5065971;28;20060;-53
2021/09/22 05:06:18;;;;;;;12.90;7.57;;;;;;;8.51;96.48;101743.00;5067032;28;20055;-51
2021/09/22 05:08:44;;;;;;;11.88;7.78;;;;;;;8.45;96.09;101738.72;5065173;28;20171;-52
2021/09/22 05:11:11;;;;;;;11.70;8.23;;;;;;;8.45;96.83;101746.66;5066054;28;20044;-51
2021/09/22 05:13:37;;;;;;;12.75;8.30;;;;;;;8.44;97.00;101747.53;5066178;28;20055;-53
2021/09/22 05:16:04;;;;;;;12.63;8.48;;;;;;;8.41;96.85;101747.59;5060219;28;20045;-53
2021/09/22 05:18:31;;;;;;;12.38;8.68;;;;;;;8.38;96.89;101760.84;5054393;28;20060;-51
2021/09/22 05:20:58;;;;;;;12.00;8.35;;;;;;;8.40;96.99;101764.31;5052187;28;20051;-52
2021/09/22 05:23:24;;;;;;;12.73;8.70;;;;;;;8.39;96.87;101767.84;5061981;28;20580;-53
2021/09/22 05:25:51;;;;;;;14.23;8.27;;;;;;;8.38;97.26;101774.91;5049536;28;20545;-52
2021/09/22 05:28:17;;;;;;;16.15;8.18;;;;;;;8.37;97.19;101777.56;5057429;28;20195;-52
2021/09/22 05:30:44;;;;;;;11.27;7.47;;;;;;;8.35;97.48;101766.16;5052133;28;20060;-52
2021/09/22 05:33:10;;;;;;;13.63;8.50;;;;;;;8.37;97.68;101773.16;5053779;28;20048;-52
2021/09/22 05:35:45;;;;;;;13.02;8.50;;;;;;;8.38;97.31;101771.38;5052689;28;20056;-53
2021/09/22 05:38:11;;;;;;;12.68;8.18;;;;;;;8.25;97.43;101754.84;5055158;28;20499;-51
2021/09/22 05:40:38;;;;;;;12.88;8.95;;;;;;;8.39;97.82;101770.50;5049461;28;20064;-53
2021/09/22 05:43:05;;;;;;;14.13;9.07;;;;;;;8.41;97.73;101771.34;5052709;28;20386;-51
2021/09/22 05:45:31;;;;;;;12.63;8.88;;;;;;;8.44;97.30;101773.94;5057351;28;20044;-52
2021/09/22 05:47:58;;;;;;;12.57;8.63;;;;;;;8.44;97.06;101776.59;5055285;28;20146;-51
2021/09/22 05:50:24;;;;;;;10.88;8.10;;;;;;;8.41;97.39;101769.59;5050599;28;20059;-54
2021/09/22 05:52:51;;;;;;;14.05;8.27;;;;;;;8.47;96.97;101780.94;5052856;28;20123;-51
2021/09/22 05:55:17;;;;;;;11.80;8.43;;;;;;;8.46;97.13;101782.72;5057060;28;20044;-52
2021/09/22 05:57:44;;;;;;;13.95;8.68;;;;;;;8.50;97.40;101775.63;5055117;28;20398;-52
2021/09/22 06:00:11;;;;;;;13.70;8.90;;;;;;;8.54;96.97;101778.16;5053661;28;20047;-52
2021/09/22 06:02:37;;;;;;;12.80;9.13;;;;;;;8.60;97.36;101770.16;5055345;28;20044;-52
2021/09/22 06:05:05;;;;;;;14.25;8.60;;;;;;;8.63;96.27;101770.09;5055227;28;20040;-52
2021/09/22 06:07:32;;;;;;;10.60;8.13;;;;;;;8.62;96.32;101778.06;5059629;28;20490;-52
2021/09/22 06:09:59;;;;;;;13.65;8.00;;;;;;;8.65;96.54;101770.09;5044908;28;20098;-51
2021/09/22 06:12:29;;;;;;;12.65;8.60;;;;;;;8.71;96.13;101778.75;5052216;28;20044;-51
2021/09/22 06:14:56;;;;;;;13.45;9.40;;;;;;;8.70;95.84;101777.00;5046588;28;20053;-51
2021/09/22 06:17:22;;;;;;;12.65;8.70;;;;;;;8.72;96.19;101779.63;5056222;28;20059;-51
2021/09/22 06:19:49;;;;;;;14.75;9.43;;;;;;;8.77;95.95;101786.59;5055042;28;20079;-53
2021/09/22 06:22:22;;;;;;;12.45;8.63;;;;;;;8.85;95.60;101786.44;5056350;28;20052;-50
2021/09/22 06:24:53;;;;;;;13.82;8.73;;;;;;;8.91;95.06;101788.09;5051782;28;20056;-52
2021/09/22 06:27:20;;;;;;;13.27;9.10;;;;;;;8.85;94.95;101780.28;5051386;28;20051;-51
2021/09/22 06:29:46;;;;;;;13.90;8.57;;;;;;;8.91;95.47;101796.91;5053976;28;20045;-51
2021/09/22 06:32:13;;;;;;;12.52;9.30;;;;;;;8.97;95.61;101801.22;5060396;28;20509;-51
2021/09/22 06:34:40;;;;;;;13.45;9.30;;;;;;;9.04;94.71;101800.19;5054195;28;20060;-53
2021/09/22 06:37:06;;;;;;;13.15;9.48;;;;;;;9.08;94.70;101800.13;5057186;28;20044;-51
2021/09/22 06:39:33;;;;;;;13.15;9.23;;;;;;;9.16;94.37;101792.03;5058345;28;20048;-51
2021/09/22 06:41:59;;;;;;;11.85;9.23;;;;;;;9.22;94.73;101794.56;5054466;28;20059;-52
2021/09/22 06:44:26;;;;;;;14.82;9.23;;;;;;;9.27;94.33;101789.19;5057994;28;20048;-53
2021/09/22 06:46:53;;;;;;;14.85;9.40;;;;;;;9.36;93.81;101795.16;5054878;28;20044;-51
2021/09/22 06:49:19;;;;;;;14.65;8.80;;;;;;;9.42;93.63;101789.78;5057523;28;20525;-51
2021/09/22 06:51:45;;;;;;;15.77;9.82;;;;;;;9.60;96.37;101790.31;5056980;28;20517;-52
2021/09/22 06:54:14;;;;;;;14.07;9.63;;;;;;;9.78;96.27;101792.53;5048072;28;20045;-51
2021/09/22 06:56:41;;;;;;;14.15;8.90;;;;;;;9.86;94.20;101790.59;5044078;28;20049;-54
2021/09/22 06:59:07;;;;;;;19.50;9.75;;;;;;;9.94;91.58;101785.13;5048932;28;20147;-52
2021/09/22 07:01:34;;;;;;;15.00;10.13;;;;;;;10.05;90.55;101791.06;5052845;28;20048;-52
2021/09/22 07:04:01;;;;;;;15.48;9.63;;;;;;;10.13;90.61;101789.09;5057375;28;20403;-51
2021/09/22 07:06:28;;;;;;;13.75;9.48;;;;;;;10.22;90.91;101794.25;5051025;28;20413;-52
2021/09/22 07:08:54;;;;;;;14.63;10.32;;;;;;;10.35;89.66;101787.75;5050104;28;20045;-51
2021/09/22 07:11:21;;;;;;;17.83;10.00;;;;;;;10.50;88.97;101790.03;5058520;28;20048;-52
2021/09/22 07:13:50;;;;;;;12.68;9.02;;;;;;;10.60;88.59;101785.34;5055288;28;20772;-51
2021/09/22 07:16:17;;;;;;;15.63;10.65;;;;;;;10.75;86.68;101790.25;5053723;28;20044;-51
2021/09/22 07:18:44;;;;;;;15.00;9.75;;;;;;;10.83;86.67;101792.75;5062313;28;20048;-50
2021/09/22 07:21:11;;;;;;;13.82;9.70;;;;;;;10.95;86.32;101791.53;5058379;28;20052;-51
2021/09/22 07:23:38;;;;;;;16.35;9.82;;;;;;;11.10;86.50;101797.31;5055989;28;20129;-51
2021/09/22 07:26:06;;;;;;;16.45;9.88;;;;;;;11.23;83.82;101804.00;5054105;28;20791;-51
2021/09/22 07:28:34;;;;;;;14.30;9.65;;;;;;;11.24;84.77;101807.53;5048749;28;20139;-51
2021/09/22 07:31:02;;;;;;;16.27;10.65;;;;;;;11.29;84.28;101797.69;5051596;28;20062;-51
2021/09/22 07:33:29;;;;;;;16.83;10.70;;;;;;;11.29;84.15;101797.69;5053405;28;20056;-51
2021/09/22 07:35:56;;;;;;;14.50;10.93;;;;;;;11.38;83.71;101805.38;5054188;28;20072;-51
2021/09/22 07:38:22;;;;;;;17.33;10.40;;;;;;;11.45;83.37;101806.06;5053497;28;20055;-54
2021/09/22 07:40:49;;;;;;;20.27;12.07;;;;;;;11.55;83.20;101804.91;5053496;28;20071;-52
2021/09/22 07:43:16;;;;;;;17.70;12.25;;;;;;;11.65;82.50;101816.97;5052347;28;20410;-53
2021/09/22 07:45:43;;;;;;;18.60;11.85;;;;;;;11.76;82.72;101803.44;5055356;28;20040;-52
2021/09/22 07:48:10;;;;;;;20.23;12.52;;;;;;;11.86;82.26;101811.06;5053740;28;20048;-52
2021/09/22 07:50:36;;;;;;;16.88;11.60;;;;;;;11.98;81.45;101808.97;5053124;28;20048;-52
2021/09/22 07:53:03;;;;;;;18.88;12.43;;;;;;;12.14;81.43;101804.91;5059119;28;20041;-52
2021/09/22 07:55:30;;;;;;;17.27;11.77;;;;;;;12.30;80.38;101808.84;5056085;28;20051;-53
2021/09/22 07:57:58;;;;;;;15.82;11.45;;;;;;;12.40;79.77;101814.75;5055860;28;20469;-52
2021/09/22 08:00:25;;;;;;;13.18;9.82;;;;;;;12.44;78.05;101813.72;5056611;28;20060;-52
2021/09/22 08:02:54;;;;;;;16.75;9.43;;;;;;;12.42;82.39;101811.13;5053450;28;20059;-51
2021/09/22 08:05:21;;;;;;;14.63;9.65;;;;;;;12.52;80.57;101817.88;5053045;28;20076;-52
2021/09/22 08:07:48;;;;;;;16.27;10.23;;;;;;;12.58;78.78;101815.03;5047995;28;20052;-53
2021/09/22 08:10:16;;;;;;;13.02;9.85;;;;;;;12.62;79.15;101813.13;5053173;28;20054;-52
2021/09/22 08:12:44;;;;;;;15.35;9.48;;;;;;;12.65;78.60;101813.03;5054124;28;20059;-52
2021/09/22 08:15:11;;;;;;;14.35;9.60;;;;;;;12.76;78.82;101815.31;5054009;28;20040;-53
2021/09/22 08:17:40;;;;;;;13.00;9.73;;;;;;;12.80;77.55;101822.28;5052847;28;20051;-52
2021/09/22 08:20:08;;;;;;;14.13;10.07;;;;;;;12.84;77.70;101822.13;5054596;28;20052;-52
2021/09/22 08:22:35;;;;;;;13.80;9.43;;;;;;;12.96;77.40;101820.84;5047982;28;20145;-52
2021/09/22 08:25:02;;;;;;;16.90;9.93;;;;;;;12.95;77.07;101801.34;5051382;28;20055;-51
2021/09/22 08:27:29;;;;;;;13.77;9.85;;;;;;;13.12;75.91;101816.72;5053334;28;20377;-52
2021/09/22 08:29:55;;;;;;;14.15;9.15;;;;;;;13.16;76.00;101815.75;5051496;28;20053;-53
2021/09/22 08:32:22;;;;;;;15.90;9.93;;;;;;;13.29;75.54;101809.06;5050762;28;20040;-51
2021/09/22 08:34:49;;;;;;;14.18;9.02;;;;;;;13.32;75.30;101803.63;5052221;28;20131;-51
2021/09/22 08:37:16;;;;;;;14.57;9.40;;;;;;;13.42;75.39;101806.81;5054378;28;20049;-51
2021/09/22 08:39:42;;;;;;;15.55;9.10;;;;;;;13.65;76.70;101817.50;5051865;28;20085;-51
2021/09/22 08:42:10;;;;;;;13.30;8.73;;;;;;;13.90;75.07;101811.22;5054379;28;20078;-51
2021/09/22 08:44:37;;;;;;;17.65;8.93;;;;;;;14.08;74.72;101815.00;5050855;28;20059;-52
2021/09/22 08:47:04;;;;;;;12.48;9.35;;;;;;;14.22;72.99;101799.31;5055567;28;20040;-53
2021/09/22 08:49:30;;;;;;;16.85;9.15;;;;;;;14.57;72.39;101808.59;5053649;28;20055;-54
2021/09/22 08:51:57;;;;;;;12.50;8.77;;;;;;;14.78;70.04;101804.19;5052941;28;20052;-52
2021/09/22 08:54:23;;;;;;;11.95;8.20;;;;;;;14.86;69.99;101804.72;5054499;28;20045;-52
2021/09/22 08:56:50;;;;;;;12.30;8.82;;;;;;;14.86;69.11;101807.38;5052745;28;20859;-52
2021/09/22 08:59:16;;;;;;;12.68;8.50;;;;;;;14.97;69.87;101799.78;5052426;28;20052;-51
2021/09/22 09:02:13;;;;;;;11.80;8.95;;;;;;;15.07;70.09;101796.66;5059654;28;20048;-51
2021/09/22 09:04:43;;;;;;;10.85;8.07;;;;;;;15.17;69.65;101796.25;5051868;28;20064;-51
2021/09/22 09:07:10;;;;;;;13.95;8.73;;;;;;;15.41;68.83;101795.19;5050720;28;20044;-52
2021/09/22 09:09:44;;;;;;;12.23;8.25;;;;;;;15.78;68.19;101789.91;5052214;28;20045;-51
2021/09/22 09:12:23;;;;;;;15.27;8.48;;;;;;;16.17;65.45;101780.09;5054712;28;20037;-52
2021/09/22 09:14:52;;;;;;;12.52;7.90;;;;;;;16.52;63.85;101775.72;5053265;28;20431;-52
2021/09/22 09:17:40;;;;;;;12.85;8.48;;;;;;;17.04;62.24;101777.47;5054395;28;20063;-52
2021/09/22 09:20:11;;;;;;;13.88;7.75;;;;;;;17.32;61.27;101767.97;5055130;28;20155;-52
2021/09/22 09:22:38;;;;;;;12.50;7.75;;;;;;;17.76;59.63;101774.53;5050492;28;20048;-52
2021/09/22 09:25:05;;;;;;;9.23;7.43;;;;;;;17.79;57.44;101779.69;5052897;28;20055;-54
2021/09/22 09:27:35;;;;;;;10.45;7.82;;;;;;;17.92;56.70;101781.72;5052305;28;20049;-52
2021/09/22 09:30:18;;;;;;;14.02;8.00;;;;;;;18.05;55.86;101780.09;5051999;28;20050;-55
2021/09/22 09:32:46;;;;;;;12.68;7.78;;;;;;;18.06;55.63;101774.63;5050020;28;21041;-54
2021/09/22 09:35:37;;;;;;;11.82;7.70;;;;;;;18.09;55.01;101768.25;5052066;28;20060;-52
2021/09/22 09:38:10;;;;;;;11.10;6.93;;;;;;;17.96;56.28;101769.84;5053744;28;20053;-52
2021/09/22 09:40:36;;;;;;;12.15;7.13;;;;;;;18.08;54.84;101774.56;5052704;28;20052;-54
2021/09/22 09:43:06;;;;;;;12.57;7.53;;;;;;;18.10;54.05;101767.31;5047402;28;20131;-53
2021/09/22 09:45:41;;;;;;;10.40;6.87;;;;;;;18.27;53.04;101767.19;5049875;28;20072;-54
2021/09/22 09:48:22;;;;;;;11.52;7.57;;;;;;;18.13;53.73;101767.97;5049575;28;21097;-52
2021/09/22 09:50:57;;;;;;;10.20;6.32;;;;;;;18.41;55.98;101771.78;5050455;28;20041;-54
2021/09/22 09:53:25;;;;;;;10.25;7.28;;;;;;;18.71;52.98;101769.16;5051221;28;20052;-54
2021/09/22 09:55:53;;;;;;;9.18;6.15;;;;;;;18.91;52.77;101758.94;5050005;28;20535;-54
2021/09/22 09:58:21;;;;;;;8.68;6.82;;;;;;;18.97;51.65;101755.03;5051967;28;20053;-52
2021/09/22 10:00:50;;;;;;;7.88;6.07;;;;;;;19.15;51.63;101755.72;5045916;28;20098;-52
2021/09/22 10:03:20;;;;;;;17.35;7.53;;;;;;;19.40;51.45;101752.38;5043723;28;20049;-52
2021/09/22 10:05:49;;;;;;;11.80;7.72;;;;;;;19.42;51.04;101745.94;5046233;28;20043;-51
2021/09/22 10:08:20;;;;;;;9.15;7.03;;;;;;;19.56;49.29;101743.28;5048426;28;20052;-53
2021/09/22 10:10:49;;;;;;;12.13;7.50;;;;;;;19.58;49.73;101745.88;5041141;28;20096;-52
2021/09/22 10:13:18;;;;;;;10.57;6.82;;;;;;;19.38;50.57;101741.72;5047240;28;20045;-52
2021/09/22 10:15:46;;;;;;;12.13;6.55;;;;;;;19.34;51.45;101747.41;5052240;28;20395;-52
2021/09/22 10:18:13;;;;;;;11.38;7.40;;;;;;;19.12;50.03;101724.56;5032502;28;20060;-52
2021/09/22 10:20:42;;;;;;;8.60;6.88;;;;;;;19.13;50.04;101736.16;5048129;28;20059;-51
2021/09/22 10:23:20;;;;;;;9.38;6.80;;;;;;;19.20;50.43;101730.28;5050987;28;20040;-52
2021/09/22 10:25:48;;;;;;;9.52;7.03;;;;;;;19.33;50.08;101724.19;5041878;28;20433;-52
2021/09/22 10:28:14;;;;;;;10.80;7.28;;;;;;;19.46;49.58;101730.50;5048456;28;20052;-52
2021/09/22 10:30:45;;;;;;;9.18;6.43;;;;;;;19.83;50.19;101721.84;5051150;28;20049;-51
2021/09/22 10:33:27;;;;;;;7.57;6.03;;;;;;;19.98;48.92;101721.84;5055056;28;20118;-51
2021/09/22 10:35:58;;;;;;;9.20;6.60;;;;;;;20.36;49.91;101714.81;5057188;28;20052;-52
2021/09/22 10:38:26;;;;;;;8.32;5.75;;;;;;;20.92;47.74;101708.25;5052684;28;20417;-52
2021/09/22 10:41:00;;;;;;;12.90;5.90;;;;;;;21.46;46.61;101709.88;5050190;28;20059;-53
2021/09/22 10:43:30;;;;;;;10.45;6.75;;;;;;;21.64;45.47;101713.94;5045327;28;20064;-52
2021/09/22 10:46:05;;;;;;;8.48;5.90;;;;;;;21.69;46.16;101709.09;5053244;28;20041;-52
2021/09/22 10:48:34;;;;;;;8.05;5.85;;;;;;;21.95;44.27;101704.47;5047634;28;20037;-51
2021/09/22 10:51:04;;;;;;;7.95;5.60;;;;;;;21.91;45.18;101705.66;5057268;28;20044;-51
2021/09/22 10:53:37;;;;;;;15.07;6.47;;;;;;;22.13;43.70;101691.47;5057427;28;20155;-51
2021/09/22 10:56:20;;;;;;;11.95;6.22;;;;;;;21.40;45.22;101696.84;5047322;28;20040;-52
2021/09/22 10:58:53;;;;;;;9.95;5.60;;;;;;;21.13;45.94;101691.53;5049172;28;20041;-52
2021/09/22 11:01:31;;;;;;;9.23;5.53;;;;;;;21.43;46.94;101702.00;5045856;28;20636;-52
2021/09/22 11:04:06;;;;;;;13.70;6.18;;;;;;;21.84;45.64;101691.78;5051995;28;22787;-52
2021/09/22 11:06:42;;;;;;;9.63;6.22;;;;;;;22.04;44.16;101693.88;5050526;28;20044;-51
2021/09/22 11:09:21;;;;;;;9.27;5.75;;;;;;;22.33;44.64;101685.44;5053009;28;20043;-51
2021/09/22 11:11:58;;;;;;;7.80;5.32;;;;;;;22.79;42.49;101688.22;5052370;28;20048;-54
2021/09/22 11:14:39;;;;;;;9.05;5.53;;;;;;;22.78;42.00;101681.09;5052288;28;20041;-52
2021/09/22 11:17:13;;;;;;;6.97;5.15;;;;;;;22.83;42.03;101675.31;5056619;28;20041;-51
2021/09/22 11:19:42;;;;;;;8.02;4.70;;;;;;;23.20;42.05;101675.97;5050701;28;20076;-52
2021/09/22 11:22:12;;;;;;;4.97;4.38;;;;;;;23.91;40.57;101674.72;5053693;28;20389;-52
2021/09/22 11:24:40;;;;;;;9.00;5.40;;;;;;;24.47;37.97;101661.84;5052272;28;20052;-52
2021/09/22 11:27:14;;;;;;;5.82;4.35;;;;;;;24.51;38.81;101660.59;5055669;28;20049;-52